Time;durP1;ratioP1;P1;durP2;ratioP2;P2;SDS_P1;SDS_P2;PMS_P1;PMS_P2;Temp;Humidity;BMP_temperature;BMP_pressure;BME280_temperature;BME280_humidity;BME280_pressure;Samples;Min_cycle;Max_cycle;Signal;HPM_P1;HPM_P2
2024/01/23 00:00:45;;;;;;;3.90;2.00;;;;;;;8.61;100.00;98731.03;4253425;27;20209;-84
2024/01/23 00:02:48;;;;;;;4.00;1.73;;;;;;;8.63;100.00;98732.66;4222371;28;20262;-84
2024/01/23 00:04:52;;;;;;;2.80;1.52;;;;;;;8.62;100.00;98723.16;4237107;27;20674;-84
2024/01/23 00:06:55;;;;;;;4.78;1.80;;;;;;;8.63;100.00;98722.25;4257025;27;20687;-84
2024/01/23 00:08:58;;;;;;;5.40;1.80;;;;;;;8.67;99.62;98747.16;4249272;27;20222;-83
2024/01/23 00:11:02;;;;;;;3.72;1.80;;;;;;;8.68;99.33;98755.81;4233935;27;20781;-84
2024/01/23 00:13:05;;;;;;;4.57;1.35;;;;;;;8.64;99.03;98742.13;4218042;28;20336;-84
2024/01/23 00:15:09;;;;;;;4.82;1.85;;;;;;;8.63;99.26;98732.66;4241392;27;20199;-84
2024/01/23 00:17:12;;;;;;;3.85;1.40;;;;;;;8.66;99.24;98744.63;4239654;27;20211;-84
2024/01/23 00:19:16;;;;;;;2.97;1.20;;;;;;;8.64;98.48;98736.09;4236870;27;20214;-83
2024/01/23 00:21:19;;;;;;;7.38;1.75;;;;;;;8.64;98.42;98746.50;4251714;27;20582;-84
2024/01/23 00:23:21;;;;;;;4.30;1.58;;;;;;;8.63;98.17;98735.25;4231637;27;20219;-83
2024/01/23 00:25:24;;;;;;;5.93;1.60;;;;;;;8.64;98.30;98731.72;4235014;27;20204;-84
2024/01/23 00:27:27;;;;;;;3.53;1.23;;;;;;;8.65;97.02;98711.78;4238612;27;20191;-83
2024/01/23 00:29:30;;;;;;;7.60;1.67;;;;;;;8.67;98.05;98717.72;4230057;27;20238;-84
2024/01/23 00:31:33;;;;;;;5.13;1.65;;;;;;;8.69;97.16;98718.50;4251162;27;20559;-84
2024/01/23 00:33:37;;;;;;;2.90;1.10;;;;;;;8.70;96.75;98723.63;4256314;27;20625;-83
2024/01/23 00:35:41;;;;;;;4.50;1.17;;;;;;;8.71;97.11;98711.47;4241425;27;20658;-84
2024/01/23 00:37:44;;;;;;;4.78;1.65;;;;;;;8.70;96.99;98709.78;4234141;27;20218;-84
2024/01/23 00:39:48;;;;;;;1.80;1.00;;;;;;;8.70;95.61;98704.59;4249886;27;20572;-84
2024/01/23 00:41:51;;;;;;;7.47;1.40;;;;;;;8.64;96.21;98695.31;4237054;27;20267;-84
2024/01/23 00:43:54;;;;;;;3.05;1.10;;;;;;;8.66;95.73;98705.66;4239701;27;20244;-84
2024/01/23 00:45:58;;;;;;;6.45;1.30;;;;;;;8.66;95.40;98700.44;4242344;27;20202;-84
2024/01/23 00:48:01;;;;;;;4.25;1.40;;;;;;;8.64;96.19;98700.53;4254570;27;20211;-84
2024/01/23 00:50:07;;;;;;;3.40;1.58;;;;;;;8.66;95.48;98703.91;4222082;27;20212;-83
2024/01/23 00:52:10;;;;;;;4.25;1.25;;;;;;;8.68;95.81;98698.63;4252293;27;20196;-84
2024/01/23 00:54:13;;;;;;;4.50;1.52;;;;;;;8.68;95.73;98701.22;4226428;27;20284;-84
2024/01/23 00:56:16;;;;;;;2.50;0.98;;;;;;;8.65;95.90;98702.22;4237019;27;20681;-84
2024/01/23 00:58:19;;;;;;;2.67;2.05;;;;;;;8.64;95.07;98708.31;4259933;27;20223;-84
2024/01/23 01:00:23;;;;;;;7.38;1.30;;;;;;;8.68;95.24;98709.03;4239120;27;20286;-83
2024/01/23 01:02:26;;;;;;;3.83;1.25;;;;;;;8.65;95.28;98691.81;4243730;27;20893;-84
2024/01/23 01:04:29;;;;;;;5.95;1.40;;;;;;;8.63;95.40;98693.66;4228497;27;20217;-84
2024/01/23 01:06:34;;;;;;;4.80;2.13;;;;;;;8.65;95.42;98707.41;4238848;27;20234;-84
2024/01/23 01:08:37;;;;;;;4.15;1.48;;;;;;;8.66;94.75;98700.44;4249279;27;20290;-84
2024/01/23 01:10:40;;;;;;;3.58;1.27;;;;;;;8.66;94.99;98695.25;4236190;27;20208;-84
2024/01/23 01:12:43;;;;;;;2.80;0.90;;;;;;;8.66;94.75;98683.09;4255784;27;20705;-84
2024/01/23 01:14:46;;;;;;;5.45;1.60;;;;;;;8.67;94.79;98696.94;4247515;27;20207;-84
2024/01/23 01:16:49;;;;;;;3.28;1.00;;;;;;;8.68;95.18;98707.25;4251396;27;20298;-84
2024/01/23 01:18:53;;;;;;;4.37;1.20;;;;;;;8.66;93.61;98710.84;4215233;28;20287;-84
2024/01/23 01:20:56;;;;;;;5.60;1.35;;;;;;;8.63;94.07;98703.19;4232919;27;20628;-84
2024/01/23 01:23:00;;;;;;;3.83;1.20;;;;;;;8.60;92.99;98713.75;4235501;27;20204;-84
2024/01/23 01:25:03;;;;;;;7.05;1.58;;;;;;;8.66;92.24;98718.66;4251200;27;20615;-84
2024/01/23 01:27:07;;;;;;;5.80;1.20;;;;;;;8.73;92.70;98714.81;4236573;27;20207;-84
2024/01/23 01:29:10;;;;;;;5.55;1.30;;;;;;;8.72;91.76;98728.72;4236310;27;20624;-84
2024/01/23 01:31:13;;;;;;;5.63;1.65;;;;;;;8.73;91.71;98733.84;4238347;27;20245;-84
2024/01/23 01:33:17;;;;;;;3.92;1.23;;;;;;;8.69;91.86;98734.94;4231832;27;20196;-84
2024/01/23 01:35:20;;;;;;;4.63;1.00;;;;;;;8.78;91.96;98741.41;4224883;27;20212;-84
2024/01/23 01:37:24;;;;;;;7.90;1.73;;;;;;;8.78;90.08;98731.03;4238927;27;20204;-84
2024/01/23 01:39:28;;;;;;;6.20;1.35;;;;;;;8.72;90.07;98746.94;4224758;27;20222;-84
2024/01/23 01:41:32;;;;;;;6.32;1.85;;;;;;;8.75;90.86;98754.59;4237292;27;20230;-84
2024/01/23 01:43:35;;;;;;;4.88;1.33;;;;;;;8.76;90.22;98761.47;4239948;27;20759;-83
2024/01/23 01:45:38;;;;;;;7.53;1.37;;;;;;;8.77;91.18;98744.97;4240839;27;20287;-84
2024/01/23 01:47:42;;;;;;;4.68;1.30;;;;;;;8.79;91.61;98758.72;4238330;27;21219;-84
2024/01/23 01:49:45;;;;;;;5.50;1.20;;;;;;;8.82;91.36;98755.97;4221621;27;20221;-83
2024/01/23 01:51:49;;;;;;;7.28;1.50;;;;;;;8.84;90.36;98759.31;4239641;27;20699;-83
2024/01/23 01:53:51;;;;;;;7.53;1.50;;;;;;;8.85;90.61;98761.00;4234250;27;20204;-84
2024/01/23 01:55:56;;;;;;;4.40;1.17;;;;;;;8.86;90.18;98758.34;4220487;27;20215;-83
2024/01/23 01:57:59;;;;;;;3.92;1.30;;;;;;;8.86;90.90;98757.50;4253575;27;20211;-84
2024/01/23 02:00:01;;;;;;;9.95;2.03;;;;;;;8.89;90.49;98760.78;4239297;27;20770;-84
2024/01/23 02:02:13;;;;;;;3.65;1.35;;;;;;;8.93;91.08;98755.34;4238242;27;20207;-84
2024/01/23 02:04:15;;;;;;;6.18;1.77;;;;;;;8.93;89.89;98739.75;4227613;27;20235;-84
2024/01/23 02:06:19;;;;;;;8.65;1.60;;;;;;;8.90;89.72;98746.00;4250348;27;20196;-84
2024/01/23 02:08:21;;;;;;;6.47;2.50;;;;;;;8.92;90.44;98752.00;4253562;27;20260;-84
2024/01/23 02:10:25;;;;;;;8.32;1.20;;;;;;;8.92;92.25;98771.03;4235155;27;20706;-84
2024/01/23 02:12:29;;;;;;;7.70;1.50;;;;;;;8.93;92.12;98796.97;4243863;27;20696;-84
2024/01/23 02:14:33;;;;;;;7.57;2.50;;;;;;;8.74;93.65;98789.31;4253906;27;20205;-84
2024/01/23 02:16:36;;;;;;;4.25;1.13;;;;;;;8.51;93.49;98784.44;4254208;27;20254;-83
2024/01/23 02:18:39;;;;;;;2.50;0.70;;;;;;;8.25;93.93;98784.81;4234171;27;20220;-84
2024/01/23 02:20:41;;;;;;;4.20;1.15;;;;;;;8.19;94.84;98779.09;4240703;27;20204;-84
2024/01/23 02:22:45;;;;;;;2.67;0.90;;;;;;;8.04;95.45;98780.63;4245715;27;20362;-84
2024/01/23 02:24:49;;;;;;;2.10;0.80;;;;;;;7.93;95.20;98792.44;4238509;27;20230;-83
2024/01/23 02:26:52;;;;;;;4.95;1.10;;;;;;;7.88;94.59;98783.16;4242286;27;20202;-84
2024/01/23 02:28:55;;;;;;;7.93;1.20;;;;;;;7.84;95.75;98771.25;4257388;27;20621;-84
2024/01/23 02:30:59;;;;;;;4.50;1.30;;;;;;;7.81;95.30;98797.38;4237958;27;20207;-84
2024/01/23 02:33:03;;;;;;;4.38;1.00;;;;;;;7.75;97.07;98787.25;4257938;27;20209;-84
2024/01/23 02:35:07;;;;;;;6.13;1.20;;;;;;;7.80;96.51;98795.66;4252833;27;20207;-84
2024/01/23 02:37:10;;;;;;;5.47;1.83;;;;;;;7.72;97.69;98787.41;4242124;27;20208;-83
2024/01/23 02:39:13;;;;;;;4.90;1.20;;;;;;;7.69;97.73;98795.31;4250229;27;20213;-84
2024/01/23 02:41:18;;;;;;;4.30;1.33;;;;;;;7.72;98.40;98798.63;4236460;27;20214;-84
2024/01/23 02:43:21;;;;;;;5.85;1.15;;;;;;;7.73;98.48;98789.09;4236441;27;20237;-83
2024/01/23 02:45:23;;;;;;;3.67;1.00;;;;;;;7.76;98.83;98791.53;4215882;28;20321;-84
2024/01/23 02:47:26;;;;;;;9.25;1.50;;;;;;;7.79;98.45;98787.03;4251288;27;20226;-83
2024/01/23 02:49:30;;;;;;;6.25;1.27;;;;;;;7.85;99.00;98798.88;4237255;27;20304;-83
2024/01/23 02:51:33;;;;;;;5.85;1.50;;;;;;;7.91;97.50;98803.78;4224973;28;20644;-84
2024/01/23 02:53:36;;;;;;;11.95;1.77;;;;;;;7.88;96.86;98802.19;4234956;27;20238;-84
2024/01/23 02:55:39;;;;;;;10.18;1.35;;;;;;;7.91;98.32;98803.78;4230529;27;20266;-83
2024/01/23 02:57:44;;;;;;;5.63;1.38;;;;;;;7.96;98.31;98803.50;4262946;27;20665;-83
2024/01/23 02:59:46;;;;;;;7.80;1.60;;;;;;;8.00;98.01;98819.81;4236259;27;20211;-83
2024/01/23 03:01:49;;;;;;;6.63;2.33;;;;;;;8.00;98.03;98820.66;4256196;27;20230;-83
2024/01/23 03:03:52;;;;;;;9.07;1.45;;;;;;;8.06;96.80;98833.34;4254460;27;20200;-83
2024/01/23 03:05:56;;;;;;;5.88;1.58;;;;;;;8.07;97.87;98832.44;4254467;27;20213;-83
2024/01/23 03:07:59;;;;;;;7.10;1.30;;;;;;;8.07;97.00;98826.38;4232989;27;20339;-83
2024/01/23 03:10:03;;;;;;;6.72;1.90;;;;;;;8.07;98.17;98826.38;4233904;27;20232;-84
2024/01/23 03:12:15;;;;;;;4.00;1.20;;;;;;;8.12;96.85;98822.72;4249819;27;20256;-84
2024/01/23 03:14:19;;;;;;;5.97;1.60;;;;;;;8.11;98.10;98818.41;4250855;27;20250;-83
2024/01/23 03:16:24;;;;;;;7.50;1.92;;;;;;;8.17;96.69;98817.28;4233451;27;20643;-83
2024/01/23 03:18:27;;;;;;;11.05;2.72;;;;;;;8.21;96.40;98814.47;4238406;27;20203;-83
2024/01/23 03:20:30;;;;;;;8.30;2.53;;;;;;;8.28;97.18;98822.81;4234146;27;20219;-84
2024/01/23 03:22:34;;;;;;;10.20;2.22;;;;;;;8.30;95.85;98832.22;4234814;27;20668;-84
2024/01/23 03:24:37;;;;;;;7.20;1.90;;;;;;;8.31;96.04;98823.50;4225441;27;20220;-83
2024/01/23 03:26:40;;;;;;;12.05;2.17;;;;;;;8.35;95.04;98832.84;4220433;28;22118;-83
2024/01/23 03:28:44;;;;;;;8.90;1.80;;;;;;;8.40;94.46;98840.44;4253334;27;20226;-83
2024/01/23 03:30:47;;;;;;;7.07;1.92;;;;;;;8.44;94.23;98834.19;4236461;27;21210;-84
2024/01/23 03:32:50;;;;;;;9.38;1.50;;;;;;;8.46;92.67;98835.75;4233795;27;20200;-84
2024/01/23 03:34:53;;;;;;;13.32;2.00;;;;;;;8.43;93.16;98830.72;4236511;27;20578;-84
2024/01/23 03:37:00;;;;;;;8.60;2.15;;;;;;;8.44;93.21;98822.84;4236227;27;20206;-84
2024/01/23 03:39:04;;;;;;;11.13;1.85;;;;;;;8.48;92.68;98833.97;4252380;27;20244;-83
2024/01/23 03:41:07;;;;;;;11.18;1.90;;;;;;;8.42;91.92;98829.06;4212999;28;20204;-83
2024/01/23 03:43:10;;;;;;;10.50;2.17;;;;;;;8.43;91.78;98835.91;4258050;27;20191;-83
2024/01/23 03:45:14;;;;;;;10.10;2.10;;;;;;;8.44;91.79;98824.63;4255245;27;20228;-83
2024/01/23 03:47:18;;;;;;;12.45;2.45;;;;;;;8.43;91.31;98835.91;4234137;27;20917;-83
2024/01/23 03:49:21;;;;;;;8.15;1.90;;;;;;;8.41;90.83;98816.97;4252934;27;20201;-84
2024/01/23 03:51:26;;;;;;;10.85;2.13;;;;;;;8.43;91.80;98835.09;4240851;27;20204;-83
2024/01/23 03:53:29;;;;;;;8.65;2.50;;;;;;;8.46;90.74;98843.56;4238544;27;20206;-84
2024/01/23 03:55:33;;;;;;;9.18;2.08;;;;;;;8.47;90.12;98838.28;4256303;27;20294;-84
2024/01/23 03:57:36;;;;;;;8.25;1.80;;;;;;;8.45;90.74;98847.94;4235979;27;20222;-84
2024/01/23 03:59:39;;;;;;;9.40;2.35;;;;;;;8.46;91.04;98856.56;4221107;28;20206;-84
2024/01/23 04:01:42;;;;;;;6.07;2.08;;;;;;;8.47;90.99;98859.09;4216908;28;20240;-83
2024/01/23 04:03:47;;;;;;;12.85;2.40;;;;;;;8.48;91.34;98858.19;4233100;27;20228;-84
2024/01/23 04:05:52;;;;;;;7.20;1.70;;;;;;;8.50;89.98;98868.50;4234826;27;20226;-83
2024/01/23 04:07:56;;;;;;;13.00;2.75;;;;;;;8.53;91.35;98869.19;4231500;27;20195;-84
2024/01/23 04:09:58;;;;;;;15.98;2.50;;;;;;;8.60;88.99;98873.19;4231847;27;20846;-83
2024/01/23 04:12:01;;;;;;;9.35;2.10;;;;;;;8.59;89.99;98873.28;4235086;27;20196;-83
2024/01/23 04:14:05;;;;;;;10.02;2.47;;;;;;;8.58;89.54;98867.19;4237022;27;20321;-83
2024/01/23 04:16:07;;;;;;;8.93;2.47;;;;;;;8.58;89.52;98867.19;4253528;27;20204;-84
2024/01/23 04:18:11;;;;;;;6.50;1.70;;;;;;;8.61;90.25;98868.81;4225795;28;20204;-83
2024/01/23 04:20:16;;;;;;;8.88;1.98;;;;;;;8.60;89.09;98864.53;4241538;27;20605;-83
2024/01/23 04:22:20;;;;;;;9.13;2.05;;;;;;;8.59;88.50;98863.69;4248407;27;20791;-84
2024/01/23 04:24:24;;;;;;;4.78;1.77;;;;;;;8.59;88.35;98871.50;4224965;27;20272;-83
2024/01/23 04:26:28;;;;;;;8.93;2.20;;;;;;;8.62;88.15;98879.16;4241440;27;20713;-84
2024/01/23 04:28:31;;;;;;;11.73;2.13;;;;;;;8.64;88.64;98890.31;4221209;27;20643;-84
2024/01/23 04:30:35;;;;;;;5.57;1.70;;;;;;;8.67;87.93;98886.72;4244497;27;20198;-84
2024/01/23 04:32:41;;;;;;;10.40;2.80;;;;;;;8.71;88.05;98885.69;4236926;27;20088;-83
2024/01/23 04:34:45;;;;;;;12.48;2.25;;;;;;;8.74;88.43;98908.94;4223455;27;20199;-84
2024/01/23 04:36:50;;;;;;;13.88;2.15;;;;;;;8.78;87.68;98910.44;4226565;27;20211;-84
2024/01/23 04:38:57;;;;;;;9.80;2.40;;;;;;;8.82;87.56;98925.00;4231182;27;20665;-84
2024/01/23 04:41:01;;;;;;;10.18;2.55;;;;;;;8.88;87.90;98922.94;4244216;27;20206;-84
2024/01/23 04:43:05;;;;;;;10.00;3.15;;;;;;;8.86;87.13;98916.97;4224910;27;20626;-84
2024/01/23 04:45:15;;;;;;;9.23;1.95;;;;;;;8.88;87.16;98912.53;4258056;27;20249;-84
2024/01/23 04:47:20;;;;;;;6.95;1.90;;;;;;;8.89;87.21;98918.59;4238672;27;20226;-84
2024/01/23 04:49:25;;;;;;;9.25;1.98;;;;;;;8.94;87.26;98923.50;4257255;27;20229;-84
2024/01/23 04:51:30;;;;;;;10.68;3.13;;;;;;;8.93;87.48;98924.41;4244121;27;20274;-84
2024/01/23 04:53:39;;;;;;;12.13;3.22;;;;;;;8.94;87.88;98933.91;4242023;27;20218;-84
2024/01/23 04:55:43;;;;;;;9.77;1.80;;;;;;;8.97;87.67;98938.94;4229776;27;20212;-84
2024/01/23 04:57:49;;;;;;;9.07;2.40;;;;;;;8.94;87.89;98933.91;4234138;27;20199;-84
2024/01/23 04:59:54;;;;;;;11.23;2.67;;;;;;;8.92;87.79;98924.50;4236817;27;20317;-84
2024/01/23 05:01:59;;;;;;;11.45;2.10;;;;;;;8.93;88.37;98936.59;4253318;27;20198;-84
2024/01/23 05:04:04;;;;;;;13.07;2.45;;;;;;;8.91;88.30;98938.41;4254794;27;20197;-84
2024/01/23 05:06:08;;;;;;;12.38;2.20;;;;;;;8.91;88.72;98938.41;4255861;27;20212;-84
2024/01/23 05:08:15;;;;;;;10.90;1.92;;;;;;;8.90;89.18;98946.28;4233927;27;20304;-84
2024/01/23 05:10:22;;;;;;;10.93;2.90;;;;;;;8.86;88.57;98957.75;4254480;27;20201;-83
2024/01/23 05:12:29;;;;;;;11.02;3.35;;;;;;;8.84;89.05;98959.56;4242571;27;20206;-84
2024/01/23 05:14:34;;;;;;;9.13;2.20;;;;;;;8.83;89.43;98966.53;4238623;27;20223;-83
2024/01/23 05:16:39;;;;;;;7.13;2.20;;;;;;;8.81;89.11;98968.38;4226137;27;20208;-83
2024/01/23 05:18:44;;;;;;;6.78;2.22;;;;;;;8.84;89.01;98983.84;4224540;27;20660;-84
2024/01/23 05:20:50;;;;;;;7.07;2.63;;;;;;;8.84;89.66;98983.84;4221383;27;20201;-83
2024/01/23 05:22:55;;;;;;;16.05;2.55;;;;;;;8.87;89.47;98988.03;4240270;27;20273;-84
2024/01/23 05:25:02;;;;;;;8.98;2.03;;;;;;;8.88;89.43;98984.53;4222856;27;20236;-84
2024/01/23 05:27:12;;;;;;;16.70;2.28;;;;;;;8.85;88.69;98989.88;4240768;27;20222;-83
2024/01/23 05:29:35;;;;;;;10.02;2.15;;;;;;;8.86;89.06;98994.19;4251097;27;20210;-84
2024/01/23 05:31:39;;;;;;;8.80;2.70;;;;;;;8.85;89.45;98992.47;4239416;27;20199;-84
2024/01/23 05:33:43;;;;;;;13.07;3.25;;;;;;;8.83;89.82;98989.94;4254886;27;20206;-84
2024/01/23 05:36:10;;;;;;;8.38;1.75;;;;;;;8.78;90.61;99004.06;4241740;27;20203;-84
2024/01/23 05:38:15;;;;;;;10.95;3.70;;;;;;;8.79;90.26;98997.97;4225627;27;20684;-84
2024/01/23 05:40:18;;;;;;;11.00;2.25;;;;;;;8.79;90.92;99004.00;4241897;27;20202;-84
2024/01/23 05:42:27;;;;;;;6.70;1.65;;;;;;;8.78;89.69;99015.34;4236140;27;20203;-84
2024/01/23 05:44:35;;;;;;;7.20;2.20;;;;;;;8.78;90.68;99015.34;4229874;27;20684;-84
2024/01/23 05:46:41;;;;;;;11.23;2.47;;;;;;;8.75;90.15;99023.28;4238646;27;20712;-84
2024/01/23 05:48:47;;;;;;;7.20;1.95;;;;;;;8.77;90.77;99033.63;4256350;27;20199;-84
2024/01/23 05:51:09;;;;;;;7.13;1.63;;;;;;;8.72;90.86;99036.41;4239203;27;20203;-84
2024/01/23 05:53:17;;;;;;;10.70;2.38;;;;;;;8.75;91.34;99043.22;4237345;27;20290;-84
2024/01/23 05:55:22;;;;;;;11.53;2.63;;;;;;;8.71;90.42;99044.28;4252507;27;20202;-84
2024/01/23 05:57:47;;;;;;;9.82;2.03;;;;;;;8.73;91.01;99042.47;4245837;27;20623;-84
2024/01/23 06:00:13;;;;;;;5.75;2.00;;;;;;;8.69;89.55;99039.16;4253741;27;20668;-84
2024/01/23 06:02:37;;;;;;;11.57;1.85;;;;;;;8.65;89.90;99050.59;4233892;27;20200;-84
2024/01/23 06:04:42;;;;;;;9.50;2.07;;;;;;;8.63;91.16;99069.78;4232482;27;20208;-84
2024/01/23 06:06:47;;;;;;;7.83;1.90;;;;;;;8.59;90.76;99069.06;4254030;27;21296;-84
2024/01/23 06:09:07;;;;;;;9.77;1.67;;;;;;;8.58;89.40;99066.53;4235796;27;20622;-84
2024/01/23 06:11:17;;;;;;;5.95;2.58;;;;;;;8.54;89.54;99073.66;4217294;27;20599;-84
2024/01/23 06:13:22;;;;;;;8.07;2.05;;;;;;;8.55;90.82;99077.94;4238861;27;20200;-84
2024/01/23 06:15:31;;;;;;;9.38;1.77;;;;;;;8.50;90.82;99077.28;4236338;27;20626;-84
2024/01/23 06:17:35;;;;;;;6.97;1.80;;;;;;;8.49;90.68;99074.75;4222640;27;20292;-84
2024/01/23 06:19:40;;;;;;;5.78;1.83;;;;;;;8.49;90.47;99085.16;4255264;27;20633;-85
2024/01/23 06:21:48;;;;;;;7.85;2.03;;;;;;;8.47;89.68;99102.59;4239117;27;20237;-83
2024/01/23 06:23:54;;;;;;;5.85;2.00;;;;;;;8.44;89.88;99106.16;4254933;27;20203;-84
2024/01/23 06:26:05;;;;;;;7.88;1.60;;;;;;;8.47;90.15;99108.63;4225786;27;20210;-83
2024/01/23 06:28:10;;;;;;;8.23;2.05;;;;;;;8.46;89.82;99106.09;4240372;27;20620;-84
2024/01/23 06:30:22;;;;;;;7.00;1.50;;;;;;;8.45;88.93;99112.22;4260184;27;20198;-81
2024/01/23 06:32:28;;;;;;;9.80;2.28;;;;;;;8.45;89.91;99118.25;4242865;27;20680;-83
2024/01/23 06:34:52;;;;;;;5.63;1.60;;;;;;;8.40;88.91;99137.53;4239979;27;20216;-82
2024/01/23 06:36:58;;;;;;;8.45;1.70;;;;;;;8.39;89.09;99140.19;4252085;27;20195;-84
2024/01/23 06:39:05;;;;;;;5.10;2.00;;;;;;;8.35;88.75;99144.69;4255980;27;20268;-83
2024/01/23 06:41:29;;;;;;;7.80;1.85;;;;;;;8.33;89.48;99145.66;4234931;27;20203;-83
2024/01/23 06:43:34;;;;;;;9.65;2.70;;;;;;;8.31;88.71;99144.88;4213865;27;20236;-83
2024/01/23 06:45:44;;;;;;;7.15;1.92;;;;;;;8.25;88.63;99156.38;4254531;27;20292;-84
2024/01/23 06:47:50;;;;;;;8.52;1.95;;;;;;;8.24;90.35;99153.84;4232716;27;20219;-84
2024/01/23 06:49:55;;;;;;;6.07;1.77;;;;;;;8.18;89.33;99152.38;4251337;27;20217;-84
2024/01/23 06:52:19;;;;;;;5.85;1.73;;;;;;;8.19;90.52;99173.97;4251495;27;20236;-83
2024/01/23 06:54:42;;;;;;;7.88;2.85;;;;;;;8.16;90.10;99159.38;4256711;27;20684;-84
2024/01/23 06:57:00;;;;;;;5.90;1.70;;;;;;;8.15;88.82;99172.44;4252917;27;20578;-84
2024/01/23 06:59:22;;;;;;;9.25;2.55;;;;;;;8.11;90.62;99176.03;4238656;27;20203;-84
2024/01/23 07:01:28;;;;;;;10.60;2.10;;;;;;;8.06;90.65;99184.00;4236496;27;20204;-84
2024/01/23 07:03:51;;;;;;;7.18;1.70;;;;;;;8.05;90.05;99184.06;4240849;27;20761;-84
2024/01/23 07:06:00;;;;;;;5.43;2.10;;;;;;;8.08;88.90;99191.75;4255551;27;20202;-83
2024/01/23 07:08:08;;;;;;;8.80;2.05;;;;;;;8.02;89.92;99198.00;4225879;27;20586;-81
2024/01/23 07:10:17;;;;;;;7.20;1.70;;;;;;;7.99;89.13;99203.34;4224677;27;20298;-81
2024/01/23 07:12:23;;;;;;;11.50;2.90;;;;;;;7.98;90.79;99206.88;4221310;27;20207;-84
2024/01/23 07:14:29;;;;;;;5.88;1.85;;;;;;;8.00;90.54;99204.19;4232793;27;20650;-83
2024/01/23 07:16:47;;;;;;;7.15;1.80;;;;;;;7.99;89.57;99221.50;4259325;27;20251;-83
2024/01/23 07:18:59;;;;;;;7.38;1.70;;;;;;;7.98;90.36;99227.63;4216284;27;20204;-83
2024/01/23 07:21:06;;;;;;;4.65;1.83;;;;;;;7.95;89.51;99228.66;4253415;27;20249;-83
2024/01/23 07:23:30;;;;;;;3.85;1.20;;;;;;;7.94;91.16;99229.56;4235767;27;20229;-83
2024/01/23 07:25:39;;;;;;;6.68;1.65;;;;;;;7.91;90.58;99237.47;4248002;27;20216;-83
2024/01/23 07:27:50;;;;;;;7.90;1.63;;;;;;;7.89;91.71;99232.31;4245860;27;20229;-82
2024/01/23 07:29:57;;;;;;;4.55;1.55;;;;;;;7.83;92.12;99236.94;4245571;27;20308;-82
2024/01/23 07:32:04;;;;;;;3.80;1.45;;;;;;;7.86;91.57;99239.41;4240799;27;20215;-82
2024/01/23 07:34:10;;;;;;;4.35;1.23;;;;;;;7.83;91.13;99234.31;4233762;27;20199;-81
2024/01/23 07:36:18;;;;;;;6.43;1.88;;;;;;;7.84;92.10;99251.63;4252854;27;20656;-82
2024/01/23 07:38:32;;;;;;;5.55;1.63;;;;;;;7.85;91.93;99255.88;4224217;27;20201;-82
2024/01/23 07:40:43;;;;;;;4.65;1.30;;;;;;;7.90;91.83;99266.97;4251622;27;20202;-81
2024/01/23 07:42:48;;;;;;;7.90;1.75;;;;;;;7.96;91.91;99264.13;4227410;27;20200;-82
2024/01/23 07:44:54;;;;;;;9.25;1.95;;;;;;;8.02;91.66;99269.91;4234552;27;22007;-82
2024/01/23 07:47:04;;;;;;;14.38;1.90;;;;;;;8.13;90.86;99280.75;4255778;27;20298;-82
2024/01/23 07:49:27;;;;;;;6.45;1.63;;;;;;;8.30;90.54;99291.31;4254355;27;20234;-82
2024/01/23 07:51:48;;;;;;;7.55;1.65;;;;;;;8.42;90.03;99294.28;4220050;28;20244;-82
2024/01/23 07:54:11;;;;;;;7.00;1.85;;;;;;;8.55;88.74;99308.47;4220850;27;20290;-84
2024/01/23 07:56:18;;;;;;;6.25;1.90;;;;;;;8.66;89.49;99312.31;4236878;27;20222;-84
2024/01/23 07:58:41;;;;;;;7.18;1.70;;;;;;;8.70;88.71;99313.03;4227901;27;20241;-83
2024/01/23 08:00:56;;;;;;;4.03;1.80;;;;;;;8.64;87.94;99315.88;4240769;27;20718;-84
2024/01/23 08:03:20;;;;;;;9.00;2.15;;;;;;;8.50;88.10;99316.44;4245549;27;20238;-84
2024/01/23 08:05:43;;;;;;;5.28;1.70;;;;;;;8.51;89.18;99318.16;4241782;27;20296;-84
2024/01/23 08:08:02;;;;;;;6.60;1.60;;;;;;;8.73;87.37;99331.09;4234147;27;20314;-84
2024/01/23 08:10:25;;;;;;;4.55;1.60;;;;;;;8.74;87.80;99328.44;4242870;27;20215;-84
2024/01/23 08:12:48;;;;;;;7.45;1.60;;;;;;;8.79;87.07;99336.06;4247847;27;20694;-84
2024/01/23 08:15:12;;;;;;;9.68;2.03;;;;;;;8.75;86.59;99339.69;4232214;27;20204;-84
2024/01/23 08:17:35;;;;;;;7.97;1.80;;;;;;;8.70;86.70;99334.66;4228244;27;20208;-83
2024/01/23 08:19:59;;;;;;;4.75;1.48;;;;;;;8.77;86.29;99336.13;4262058;27;20213;-82
2024/01/23 08:22:23;;;;;;;4.85;1.70;;;;;;;8.82;86.67;99343.72;4238361;27;20241;-81
2024/01/23 08:24:51;;;;;;;8.20;2.55;;;;;;;8.81;86.31;99350.69;4241376;27;20872;-80
2024/01/23 08:27:15;;;;;;;4.13;1.70;;;;;;;8.78;85.93;99335.22;4235865;27;20672;-80
2024/01/23 08:29:38;;;;;;;5.75;1.85;;;;;;;8.74;87.53;99348.41;4244029;27;21213;-80
2024/01/23 08:32:01;;;;;;;6.65;1.50;;;;;;;8.74;86.07;99335.41;4240639;27;20210;-79
2024/01/23 08:34:24;;;;;;;11.02;1.73;;;;;;;8.69;86.12;99343.41;4256535;27;20214;-80
2024/01/23 08:36:36;;;;;;;6.15;2.70;;;;;;;8.71;86.64;99338.97;4240703;27;20656;-79
2024/01/23 08:39:00;;;;;;;6.25;1.88;;;;;;;8.71;87.39;99335.53;4266292;27;20251;-79
2024/01/23 08:41:23;;;;;;;7.00;2.00;;;;;;;8.77;87.27;99340.50;4227260;27;20207;-79
2024/01/23 08:43:46;;;;;;;5.97;1.63;;;;;;;8.82;87.61;99343.72;4242755;27;20290;-79
2024/01/23 08:46:13;;;;;;;7.78;1.90;;;;;;;8.80;86.35;99345.56;4225902;27;20208;-79
2024/01/23 08:48:37;;;;;;;8.35;2.53;;;;;;;8.78;87.49;99348.22;4244086;27;20245;-80
2024/01/23 08:51:00;;;;;;;7.72;2.10;;;;;;;8.76;85.88;99357.00;4230577;27;20286;-79
2024/01/23 08:53:24;;;;;;;5.30;1.55;;;;;;;8.78;86.83;99357.75;4218800;27;20209;-80
2024/01/23 08:55:48;;;;;;;10.35;1.95;;;;;;;8.81;86.47;99368.91;4244226;27;20803;-79
2024/01/23 08:58:15;;;;;;;6.53;1.92;;;;;;;8.87;86.63;99370.38;4238792;27;20227;-80
2024/01/23 09:00:38;;;;;;;5.18;1.70;;;;;;;8.92;86.94;99377.94;4225930;27;20738;-79
2024/01/23 09:03:02;;;;;;;9.35;2.50;;;;;;;8.96;87.43;99387.31;4230838;27;20203;-79
2024/01/23 09:05:25;;;;;;;11.57;2.17;;;;;;;8.99;87.52;99383.72;4235480;27;20226;-80
2024/01/23 09:07:52;;;;;;;5.95;1.48;;;;;;;9.02;87.81;99387.06;4241736;27;20231;-79
2024/01/23 09:10:16;;;;;;;14.75;2.55;;;;;;;9.05;87.55;99394.75;4236868;27;20201;-80
2024/01/23 09:12:40;;;;;;;5.95;1.80;;;;;;;9.07;87.90;99390.31;4257195;27;20203;-80
2024/01/23 09:15:05;;;;;;;7.28;1.83;;;;;;;9.10;88.42;99391.97;4242234;27;20291;-82
2024/01/23 09:17:28;;;;;;;15.63;2.80;;;;;;;9.09;88.52;99398.91;4242437;27;20210;-82
2024/01/23 09:19:39;;;;;;;7.90;1.70;;;;;;;9.08;88.26;99388.56;4244508;27;20220;-82
2024/01/23 09:21:51;;;;;;;6.47;1.73;;;;;;;9.02;88.00;99414.81;4241854;27;20762;-82
2024/01/23 09:24:14;;;;;;;7.03;2.00;;;;;;;9.01;88.16;99418.34;4256281;27;20203;-82
2024/01/23 09:26:39;;;;;;;10.05;2.47;;;;;;;9.05;88.42;99423.38;4244063;27;20381;-82
2024/01/23 09:29:02;;;;;;;7.75;2.00;;;;;;;9.09;88.06;99424.09;4258328;27;20230;-82
2024/01/23 09:31:25;;;;;;;10.57;2.50;;;;;;;9.11;88.25;99438.75;4243027;27;20247;-82
2024/01/23 09:33:48;;;;;;;10.83;2.37;;;;;;;9.04;88.69;99433.84;4228191;27;20701;-83
2024/01/23 09:36:11;;;;;;;12.45;2.20;;;;;;;9.02;89.71;99443.44;4241477;27;20975;-82
2024/01/23 09:38:34;;;;;;;10.20;2.60;;;;;;;9.01;88.80;99447.81;4240737;27;20207;-82
2024/01/23 09:40:57;;;;;;;6.65;2.00;;;;;;;9.05;88.48;99462.41;4225268;27;20617;-82
2024/01/23 09:43:22;;;;;;;10.10;2.47;;;;;;;9.11;89.18;99472.56;4228159;27;20749;-82
2024/01/23 09:45:48;;;;;;;16.58;3.25;;;;;;;9.14;88.94;99462.03;4239965;27;20282;-82
2024/01/23 09:48:13;;;;;;;12.00;2.42;;;;;;;9.21;88.02;99479.06;4234887;27;20227;-82
2024/01/23 09:50:37;;;;;;;10.65;2.10;;;;;;;9.21;88.72;99478.25;4241181;27;20203;-82
2024/01/23 09:53:00;;;;;;;10.30;3.03;;;;;;;9.15;87.72;99468.91;4224311;27;20196;-83
2024/01/23 09:55:23;;;;;;;8.23;2.17;;;;;;;9.13;88.25;99475.94;4254924;27;20199;-82
2024/01/23 09:57:49;;;;;;;8.07;2.42;;;;;;;9.13;88.86;99483.75;4238936;27;20243;-82
2024/01/23 09:59:58;;;;;;;10.65;2.28;;;;;;;9.19;87.27;99480.06;4250940;27;20207;-82
2024/01/23 10:02:21;;;;;;;13.57;3.58;;;;;;;9.20;88.23;99471.31;4252884;27;20211;-82
2024/01/23 10:04:46;;;;;;;8.00;2.28;;;;;;;9.13;88.76;99470.75;4237605;27;20299;-83
2024/01/23 10:07:09;;;;;;;15.02;2.38;;;;;;;9.11;88.78;99466.50;4239431;27;20761;-83
2024/01/23 10:09:33;;;;;;;11.10;2.15;;;;;;;9.14;88.65;99475.06;4251224;27;20753;-82
2024/01/23 10:11:56;;;;;;;15.10;2.17;;;;;;;9.17;88.68;99467.13;4251666;27;20211;-82
2024/01/23 10:14:19;;;;;;;7.13;2.83;;;;;;;9.15;87.48;99471.50;4240853;27;20604;-83